Flugplatz Langhennersdorf

Für EDOH sind keine METAR/TAF Berichte vorhanden.
Es werden die Flugwettermeldungen vom Flugplatz Dresden in 40 km Entfernung angezeigt.

Bericht für EDDC

vom 23.02. um 23:50 UTC

Wind 14 kt aus 290° in Böen 24 kt

Sichtweite 10 km oder mehr

aufgebrochene Bewölkung in 2300 ft

Temperatur 4.0°C

Taupunkt 1.0°C

Luftfeuchtigkeit 81%

Luftdruck 1015 hPa

EDDC 232350Z 29014G24KT 250V320 9999 BKN023 04/01 Q1015

Prognose für EDDC

vom 23.02. um 00:00 UTC

Zwischen 00:00 UTC und 00:00 UTC

Wind 20 kt aus 300° in Böen 35 kt

Sichtweite 10 km oder mehr

aufgelockert bewölkt in 3000 ft


Zwischen 00:00 und 00:00 UTC übergehend zu

Wind 15 kt aus 270° in Böen 25 kt

Sichtweite 10 km oder mehr

aufgelockert bewölkt in 3000 ft


Zwischen 00:00 und 00:00 UTC übergehend zu

Wind 12 kt aus 190°

Sichtweite 10 km oder mehr

aufgelockert bewölkt in 3000 ft

TAF EDDC 232300Z 2400/2424 30020G35KT 9999 SCT030 BECMG 2402/2404 27015G25KT BECMG 2413/2415 19012KT
Impressum